Bulk Hong Kong — 3EEW4 — position and weather

sailwx.info

Track history (hours):
 
Tides and Currents Weather Stations Pressure Air Temp Water Temp Dewpoint Dewpoint Depression Visibility Wind Speed Wind Dir Waves Ship Positions

Bulk Hong Kong

Last reported at 2014-Oct-11 23:05 UTC. Time now 2014-Oct-24 18:13 UTC.
Position N 22°24' E 119°51'.
Warning: this ship's position is 12 days out of date.

Length 289 m; draft 11 m.

Type: Cargo ship. MMSI: 371828000.

Date/timePositionNaut miles runAvg speedWind from/ knotsBaromVisibWave heightAir tempDewpointWater temp
2014-Oct-11 23:05N 22°24' E 119°51'813.2
2014-Oct-11 22:29N 22°32' E 119°51'1713.2
2014-Oct-11 21:13N 22°49' E 119°50'  
2014-Oct-08 23:33N 36°48' E 123°60'1312.1
2014-Oct-08 22:27N 36°59' E 123°51'1112.2
2014-Oct-08 21:33N 37°08' E 123°42'1212.2
2014-Oct-08 20:33N 37°16' E 123°32'1312.7
2014-Oct-08 19:33N 37°26' E 123°21'1613.4
2014-Oct-08 18:20N 37°36' E 123°05'1314.3
2014-Oct-08 17:26N 37°42' E 122°51'1314.4
2014-Oct-08 16:33N 37°49' E 122°37'1614.3
2014-Oct-08 15:26N 37°57' E 122°20'1213.5
2014-Oct-08 14:33N 38°03' E 122°07'1313.2
2014-Oct-08 13:33N 38°10' E 121°52'2913.2
2014-Oct-08 11:21N 38°22' E 121°19'  
2014-Oct-03 22:06N 37°42' E 123°06'  
Track history (hours):
 
Tides and Currents Weather Stations Pressure Air Temp Water Temp Dewpoint Dewpoint Depression Visibility Wind Speed Wind Dir Waves Ship Positions

Bulk Hong Kong

Last reported at 2014-Oct-11 23:05 UTC. Time now 2014-Oct-24 18:13 UTC.
Position N 22°24' E 119°51'.
Warning: this ship's position is 12 days out of date.

Length 289 m; draft 11 m.

Type: Cargo ship. MMSI: 371828000.

Date/timePositionNaut miles runAvg speedWind from/ knotsBaromVisibWave heightAir tempDewpointWater temp
2014-Oct-11 23:05N 22°24' E 119°51'813.2
2014-Oct-11 22:29N 22°32' E 119°51'1713.2
2014-Oct-11 21:13N 22°49' E 119°50'  
2014-Oct-08 23:33N 36°48' E 123°60'1312.1
2014-Oct-08 22:27N 36°59' E 123°51'1112.2
2014-Oct-08 21:33N 37°08' E 123°42'1212.2
2014-Oct-08 20:33N 37°16' E 123°32'1312.7
2014-Oct-08 19:33N 37°26' E 123°21'1613.4
2014-Oct-08 18:20N 37°36' E 123°05'1314.3
2014-Oct-08 17:26N 37°42' E 122°51'1314.4
2014-Oct-08 16:33N 37°49' E 122°37'1614.3
2014-Oct-08 15:26N 37°57' E 122°20'1213.5
2014-Oct-08 14:33N 38°03' E 122°07'1313.2
2014-Oct-08 13:33N 38°10' E 121°52'2913.2
2014-Oct-08 11:21N 38°22' E 121°19'  
2014-Oct-03 22:06N 37°42' E 123°06'  

Dump ship's entire track history